Time;durP1;ratioP1;P1;durP2;ratioP2;P2;SDS_P1;SDS_P2;PMS_P1;PMS_P2;Temp;Humidity;BMP_temperature;BMP_pressure;BME280_temperature;BME280_humidity;BME280_pressure;Samples;Min_cycle;Max_cycle;Signal;HPM_P1;HPM_P2
2022/08/21 00:01:29;;;;;;;;;;;;;;;21.69;81.85;99022.50;3121346;28;19997;-64
2022/08/21 00:03:02;;;;;;;;;;;;;;;21.71;81.74;99031.13;3121791;28;19925;-64
2022/08/21 00:04:33;;;;;;;;;;;;;;;21.72;81.59;99042.56;3121255;28;20384;-64
2022/08/21 00:06:05;;;;;;;;;;;;;;;21.75;80.90;99043.06;3121395;28;19929;-64
2022/08/21 00:07:36;;;;;;;;;;;;;;;21.76;81.45;99041.22;3119568;28;20592;-64
2022/08/21 00:09:09;;;;;;;;;;;;;;;21.79;80.44;99040.91;3121612;28;19925;-64
2022/08/21 00:10:42;;;;;;;;;;;;;;;21.81;80.19;99038.94;3118692;28;19925;-64
2022/08/21 00:12:14;;;;;;;;;;;;;;;21.82;79.87;99032.63;3114332;28;19926;-64
2022/08/21 00:13:45;;;;;;;;;;;;;;;21.85;79.71;99026.19;3121353;28;19929;-64
2022/08/21 00:15:18;;;;;;;;;;;;;;;21.87;79.40;99022.41;3121517;28;19966;-64
2022/08/21 00:16:50;;;;;;;;;;;;;;;21.87;80.21;99025.06;3121285;28;19932;-64
2022/08/21 00:18:21;;;;;;;;;;;;;;;21.81;79.98;99015.09;3121297;28;19925;-64
2022/08/21 00:19:53;;;;;;;;;;;;;;;21.80;79.80;99010.78;3109010;28;19932;-64
2022/08/21 00:21:25;;;;;;;;;;;;;;;21.77;79.44;99006.63;3119969;28;19932;-64
2022/08/21 00:22:56;;;;;;;;;;;;;;;21.74;79.42;99019.34;3120775;28;19968;-64
2022/08/21 00:24:28;;;;;;;;;;;;;;;21.69;79.34;99014.53;3121219;28;19940;-64
2022/08/21 00:26:01;;;;;;;;;;;;;;;21.71;79.18;99009.94;3123403;28;19925;-64
2022/08/21 00:27:32;;;;;;;;;;;;;;;21.73;78.82;99013.22;3128123;28;20042;-64
2022/08/21 00:29:04;;;;;;;;;;;;;;;21.75;78.95;99011.25;3121289;28;19925;-64
2022/08/21 00:30:34;;;;;;;;;;;;;;;21.78;78.80;99004.81;3121097;28;20006;-64
2022/08/21 00:32:06;;;;;;;;;;;;;;;21.81;78.34;99007.13;3121377;28;20035;-64
2022/08/21 00:33:38;;;;;;;;;;;;;;;21.85;78.10;98997.88;3120952;28;20303;-64
2022/08/21 00:35:12;;;;;;;;;;;;;;;21.88;77.74;99004.66;3121056;28;19937;-64
2022/08/21 00:36:44;;;;;;;;;;;;;;;21.92;77.76;99011.31;3120896;28;20615;-64
2022/08/21 00:38:15;;;;;;;;;;;;;;;21.94;77.75;99012.78;3121133;28;19940;-64
2022/08/21 00:39:46;;;;;;;;;;;;;;;21.95;77.43;99011.81;3121044;28;20396;-64
2022/08/21 00:41:20;;;;;;;;;;;;;;;21.98;77.09;99003.56;3117918;28;19984;-64
2022/08/21 00:42:51;;;;;;;;;;;;;;;22.01;77.86;98995.28;3114534;28;19936;-65
2022/08/21 00:44:23;;;;;;;;;;;;;;;22.00;78.81;98982.16;3121054;28;20257;-64
2022/08/21 00:45:55;;;;;;;;;;;;;;;21.91;78.95;98976.00;3121066;28;19925;-64
2022/08/21 00:47:27;;;;;;;;;;;;;;;21.83;79.75;98972.50;3121031;28;19936;-64
2022/08/21 00:48:57;;;;;;;;;;;;;;;21.83;79.54;98977.81;3121121;28;19925;-64
2022/08/21 00:50:32;;;;;;;;;;;;;;;21.85;78.75;98987.25;3121139;28;19929;-64
2022/08/21 00:52:04;;;;;;;;;;;;;;;21.87;78.21;98990.59;3120684;28;20016;-64
2022/08/21 00:53:37;;;;;;;;;;;;;;;21.90;78.84;98994.75;3122653;28;20408;-64
2022/08/21 00:55:09;;;;;;;;;;;;;;;21.91;78.58;98996.41;3123237;28;19925;-64
2022/08/21 00:56:43;;;;;;;;;;;;;;;21.94;78.43;98994.25;3122731;28;20394;-64
2022/08/21 00:58:15;;;;;;;;;;;;;;;21.98;78.19;98992.13;3123052;28;19925;-64
2022/08/21 00:59:49;;;;;;;;;;;;;;;22.00;77.59;98992.78;3122979;28;19935;-64
2022/08/21 01:01:21;;;;;;;;;;;;;;;21.99;76.88;98999.91;3123426;28;19937;-64
2022/08/21 01:02:51;;;;;;;;;;;;;;;21.99;76.61;98996.41;3123090;28;20292;-64
2022/08/21 01:04:23;;;;;;;;;;;;;;;21.97;76.51;98996.56;3123150;28;19925;-64
2022/08/21 01:05:55;;;;;;;;;;;;;;;21.97;76.28;98995.75;3122953;28;19929;-64
2022/08/21 01:07:26;;;;;;;;;;;;;;;21.96;76.38;98994.91;3121417;28;19949;-65
2022/08/21 01:08:58;;;;;;;;;;;;;;;21.96;76.03;98992.28;3123003;28;19925;-65
2022/08/21 01:10:30;;;;;;;;;;;;;;;21.98;76.12;98985.00;3121386;28;19936;-64
2022/08/21 01:12:04;;;;;;;;;;;;;;;22.00;76.23;98980.34;3114307;28;19929;-64
2022/08/21 01:13:39;;;;;;;;;;;;;;;21.92;76.36;98961.78;3122891;28;19929;-64
2022/08/21 01:15:10;;;;;;;;;;;;;;;21.97;77.01;98970.06;3122939;28;19929;-64
2022/08/21 01:16:44;;;;;;;;;;;;;;;21.94;76.97;98970.38;3122734;28;20049;-64
2022/08/21 01:18:16;;;;;;;;;;;;;;;21.96;76.62;98968.41;3122275;28;19982;-64
2022/08/21 01:19:48;;;;;;;;;;;;;;;21.98;76.50;98969.09;3122938;28;19925;-64
2022/08/21 01:21:22;;;;;;;;;;;;;;;22.02;76.30;98964.28;3122610;28;19925;-64
2022/08/21 01:22:54;;;;;;;;;;;;;;;22.04;76.03;98957.84;3119681;28;19932;-64
2022/08/21 01:24:25;;;;;;;;;;;;;;;22.07;75.65;98963.81;3122589;28;19929;-64
2022/08/21 01:25:56;;;;;;;;;;;;;;;22.06;75.54;98965.59;3124773;28;20388;-64
2022/08/21 01:27:28;;;;;;;;;;;;;;;22.06;75.63;98967.44;3130337;28;19932;-63
2022/08/21 01:29:01;;;;;;;;;;;;;;;22.05;75.67;98966.59;3122890;28;19936;-63
2022/08/21 01:30:34;;;;;;;;;;;;;;;22.07;76.68;98958.50;3122882;28;19927;-64
2022/08/21 01:32:07;;;;;;;;;;;;;;;22.04;77.10;98944.56;3122794;28;19929;-64
2022/08/21 01:33:39;;;;;;;;;;;;;;;22.00;77.35;98937.91;3122816;28;19925;-64
2022/08/21 01:35:12;;;;;;;;;;;;;;;21.95;77.58;98937.59;3122881;28;19940;-64
2022/08/21 01:36:45;;;;;;;;;;;;;;;21.86;79.06;98949.19;3122618;28;20217;-64
2022/08/21 01:38:17;;;;;;;;;;;;;;;21.76;79.63;98951.13;3137365;27;19937;-64
2022/08/21 01:39:49;;;;;;;;;;;;;;;21.71;79.77;98945.47;3122631;28;20254;-64
2022/08/21 01:41:21;;;;;;;;;;;;;;;21.66;79.97;98945.16;3119009;28;19930;-64
2022/08/21 01:42:53;;;;;;;;;;;;;;;21.61;80.39;98947.44;3116133;28;20334;-64
2022/08/21 01:44:25;;;;;;;;;;;;;;;21.56;80.34;98950.56;3122377;28;19929;-63
2022/08/21 01:45:57;;;;;;;;;;;;;;;21.49;81.35;98947.72;3122567;28;20053;-65
2022/08/21 01:47:28;;;;;;;;;;;;;;;21.44;81.55;98947.38;3122405;28;19936;-63
2022/08/21 01:49:00;;;;;;;;;;;;;;;21.42;81.48;98952.03;3122806;28;19933;-63
2022/08/21 01:50:32;;;;;;;;;;;;;;;21.35;81.53;98962.41;3122592;28;19925;-63
2022/08/21 01:52:05;;;;;;;;;;;;;;;21.27;82.25;98972.94;3119136;28;19936;-63
2022/08/21 01:53:37;;;;;;;;;;;;;;;21.21;82.58;98980.66;3122367;28;19933;-65
2022/08/21 01:55:09;;;;;;;;;;;;;;;21.17;83.48;98976.69;3122445;28;19940;-63
2022/08/21 01:56:42;;;;;;;;;;;;;;;21.10;83.27;98985.25;3122427;28;19925;-64
2022/08/21 01:58:13;;;;;;;;;;;;;;;21.04;83.47;99004.41;3122464;28;19932;-63
2022/08/21 01:59:44;;;;;;;;;;;;;;;20.98;83.83;99018.25;3122750;28;19940;-64
2022/08/21 02:01:16;;;;;;;;;;;;;;;20.94;84.01;99018.72;3122669;28;19925;-63
2022/08/21 02:02:47;;;;;;;;;;;;;;;20.93;84.49;99025.00;3122602;28;19933;-63
2022/08/21 02:04:19;;;;;;;;;;;;;;;20.88;84.72;99030.75;3121751;28;19929;-63
2022/08/21 02:05:50;;;;;;;;;;;;;;;20.87;84.81;99032.56;3122397;28;19926;-63
2022/08/21 02:07:23;;;;;;;;;;;;;;;20.86;84.81;99030.91;3120573;28;19929;-66
2022/08/21 02:08:55;;;;;;;;;;;;;;;20.90;84.34;99034.06;3122341;28;20425;-65
2022/08/21 02:10:27;;;;;;;;;;;;;;;20.89;84.28;99024.50;3121407;28;19929;-65
2022/08/21 02:11:59;;;;;;;;;;;;;;;20.91;84.00;99022.50;3113588;28;19925;-65
2022/08/21 02:13:30;;;;;;;;;;;;;;;20.98;83.45;99020.09;3122244;28;19925;-65
2022/08/21 02:15:02;;;;;;;;;;;;;;;21.03;82.88;99012.50;3121833;28;20398;-64
2022/08/21 02:16:34;;;;;;;;;;;;;;;21.01;82.55;99004.72;3122328;28;19925;-65
2022/08/21 02:18:06;;;;;;;;;;;;;;;21.15;82.12;99021.84;3122480;28;20280;-65
2022/08/21 02:19:38;;;;;;;;;;;;;;;21.21;81.63;99025.69;3122126;28;20009;-64
2022/08/21 02:21:09;;;;;;;;;;;;;;;21.24;81.88;99020.91;3122297;28;19936;-65
2022/08/21 02:22:42;;;;;;;;;;;;;;;21.28;82.18;99030.19;3122166;28;19936;-65
2022/08/21 02:24:14;;;;;;;;;;;;;;;21.29;81.97;99023.91;3122236;28;20352;-64
2022/08/21 02:25:46;;;;;;;;;;;;;;;21.34;81.85;99026.09;3122439;28;19925;-64
2022/08/21 02:27:17;;;;;;;;;;;;;;;21.39;81.09;99034.44;3131189;28;19940;-66
2022/08/21 02:28:49;;;;;;;;;;;;;;;21.44;81.33;99028.66;3122509;28;20005;-65
2022/08/21 02:30:22;;;;;;;;;;;;;;;21.50;81.19;99041.28;3122065;28;19925;-64
2022/08/21 02:31:54;;;;;;;;;;;;;;;21.51;81.65;99038.47;3122097;28;19925;-65
2022/08/21 02:33:25;;;;;;;;;;;;;;;21.53;81.51;99035.66;3121956;28;19936;-64
2022/08/21 02:34:57;;;;;;;;;;;;;;;21.53;81.55;99039.16;3122534;28;19929;-64
2022/08/21 02:36:29;;;;;;;;;;;;;;;21.55;81.92;99042.47;3121915;28;19944;-64
2022/08/21 02:38:03;;;;;;;;;;;;;;;21.53;81.80;99049.75;3121962;28;20292;-63
2022/08/21 02:39:35;;;;;;;;;;;;;;;21.57;81.18;99055.56;3122153;27;19932;-63
2022/08/21 02:41:08;;;;;;;;;;;;;;;21.59;81.03;99056.22;3120590;28;19936;-63
2022/08/21 02:42:39;;;;;;;;;;;;;;;21.62;80.66;99055.91;3113628;28;20012;-63
2022/08/21 02:44:11;;;;;;;;;;;;;;;21.66;80.70;99059.09;3121946;28;20407;-64
2022/08/21 02:45:43;;;;;;;;;;;;;;;21.69;81.09;99061.41;3121900;28;19948;-64
2022/08/21 02:47:15;;;;;;;;;;;;;;;21.68;80.80;99059.75;3122067;28;19925;-64
2022/08/21 02:48:47;;;;;;;;;;;;;;;21.71;80.54;99054.97;3121856;27;20260;-64
2022/08/21 02:50:20;;;;;;;;;;;;;;;21.75;80.56;99052.84;3121940;28;19936;-64
2022/08/21 02:51:52;;;;;;;;;;;;;;;21.78;80.17;99048.03;3121836;28;20369;-64
2022/08/21 02:53:24;;;;;;;;;;;;;;;21.81;80.15;99053.03;3121867;28;19926;-63
2022/08/21 02:54:56;;;;;;;;;;;;;;;21.84;80.20;99043.09;3121861;28;19925;-64
2022/08/21 02:56:28;;;;;;;;;;;;;;;21.86;79.97;99049.91;3121789;28;19929;-64
2022/08/21 02:58:00;;;;;;;;;;;;;;;21.86;79.86;99041.94;3121856;28;19933;-64
2022/08/21 02:59:32;;;;;;;;;;;;;;;21.88;79.65;99044.44;3121741;28;20023;-64
2022/08/21 03:01:03;;;;;;;;;;;;;;;21.89;80.22;99046.06;3121862;28;19925;-64
2022/08/21 03:02:34;;;;;;;;;;;;;;;21.87;79.96;99046.25;3121684;28;19940;-64
2022/08/21 03:04:06;;;;;;;;;;;;;;;21.89;79.54;99041.63;3122029;28;20000;-64
2022/08/21 03:05:38;;;;;;;;;;;;;;;21.90;79.61;99040.63;3121959;28;19929;-64
2022/08/21 03:07:10;;;;;;;;;;;;;;;21.91;79.82;99042.28;3119894;28;19925;-64
2022/08/21 03:08:44;;;;;;;;;;;;;;;21.92;80.20;99037.84;3121873;28;19925;-64
2022/08/21 03:10:16;;;;;;;;;;;;;;;21.90;80.13;99047.75;3121615;28;20387;-64
2022/08/21 03:11:48;;;;;;;;;;;;;;;21.77;80.44;99019.06;3121378;28;19930;-64
2022/08/21 03:13:20;;;;;;;;;;;;;;;21.91;80.21;99052.88;3121629;28;19936;-63
2022/08/21 03:14:51;;;;;;;;;;;;;;;21.94;81.18;99065.00;3121682;28;19940;-64
2022/08/21 03:16:23;;;;;;;;;;;;;;;21.88;81.33;99063.81;3120946;28;19925;-63
2022/08/21 03:17:54;;;;;;;;;;;;;;;21.87;81.46;99063.97;3121734;28;19926;-64
2022/08/21 03:19:25;;;;;;;;;;;;;;;21.85;81.37;99064.13;3121501;28;19944;-64
2022/08/21 03:20:57;;;;;;;;;;;;;;;21.84;81.15;99059.00;3121922;28;19940;-63
2022/08/21 03:22:29;;;;;;;;;;;;;;;21.86;80.76;99062.31;3121298;28;19948;-64
2022/08/21 03:24:02;;;;;;;;;;;;;;;21.87;81.47;99058.69;3121536;28;20407;-64
2022/08/21 03:25:33;;;;;;;;;;;;;;;21.87;80.78;99056.84;3121477;28;19929;-64
2022/08/21 03:27:05;;;;;;;;;;;;;;;21.88;81.56;99060.31;3131230;28;19933;-64
2022/08/21 03:28:37;;;;;;;;;;;;;;;21.84;81.42;99059.00;3121438;28;19929;-63
2022/08/21 03:30:08;;;;;;;;;;;;;;;21.82;81.37;99059.16;3121706;28;19929;-64
2022/08/21 03:31:39;;;;;;;;;;;;;;;21.83;81.05;99065.28;3121616;28;19925;-63
2022/08/21 03:33:12;;;;;;;;;;;;;;;21.81;80.58;99066.28;3121602;28;19928;-64
2022/08/21 03:34:43;;;;;;;;;;;;;;;21.83;80.80;99062.63;3121503;28;19925;-64
2022/08/21 03:36:16;;;;;;;;;;;;;;;21.81;80.55;99055.66;3121678;28;19925;-64
2022/08/21 03:37:48;;;;;;;;;;;;;;;21.82;80.43;99056.50;3121435;28;20304;-64
2022/08/21 03:39:21;;;;;;;;;;;;;;;21.84;80.66;99059.81;3121913;28;19978;-64
2022/08/21 03:40:52;;;;;;;;;;;;;;;21.81;80.63;99060.16;3121563;28;19925;-64
2022/08/21 03:42:24;;;;;;;;;;;;;;;21.81;80.50;99060.16;3111481;28;19925;-64
2022/08/21 03:43:55;;;;;;;;;;;;;;;21.78;80.74;99061.28;3121909;28;19925;-64
2022/08/21 03:45:27;;;;;;;;;;;;;;;21.71;81.47;99065.56;3122339;28;19929;-64
2022/08/21 03:46:59;;;;;;;;;;;;;;;21.70;80.87;99060.41;3135824;27;19994;-64
2022/08/21 03:48:31;;;;;;;;;;;;;;;21.72;80.73;99066.41;3121524;28;20381;-64
2022/08/21 03:50:04;;;;;;;;;;;;;;;21.69;80.84;99059.59;3121615;28;19929;-64
2022/08/21 03:51:35;;;;;;;;;;;;;;;21.69;81.06;99059.59;3121396;28;20024;-64
2022/08/21 03:53:06;;;;;;;;;;;;;;;21.70;80.76;99069.19;3118407;28;19929;-64
2022/08/21 03:54:40;;;;;;;;;;;;;;;21.72;80.88;99066.41;3121398;28;20249;-64
2022/08/21 03:56:12;;;;;;;;;;;;;;;21.68;81.01;99073.84;3121972;28;19936;-64
2022/08/21 03:57:43;;;;;;;;;;;;;;;21.68;81.18;99075.63;3121301;28;19925;-64
2022/08/21 03:59:14;;;;;;;;;;;;;;;21.67;80.96;99071.34;3121491;28;19932;-64
2022/08/21 04:00:46;;;;;;;;;;;;;;;21.69;80.46;99077.31;3121597;28;19925;-64
2022/08/21 04:02:20;;;;;;;;;;;;;;;21.69;80.25;99078.16;3121622;28;20332;-64
2022/08/21 04:03:52;;;;;;;;;;;;;;;21.69;79.70;99072.03;3121295;28;20373;-64
2022/08/21 04:05:30;;;;;;;;;;;;;;;21.68;79.58;99076.50;3121289;28;19956;-64
2022/08/21 04:07:01;;;;;;;;;;;;;;;21.68;79.39;99076.50;3119257;28;19925;-64
2022/08/21 04:08:33;;;;;;;;;;;;;;;21.68;79.37;99073.84;3121504;28;20353;-64
2022/08/21 04:10:06;;;;;;;;;;;;;;;21.69;79.33;99072.84;3121220;28;20288;-64
2022/08/21 04:11:38;;;;;;;;;;;;;;;21.72;79.29;99071.69;3111009;28;19926;-64
2022/08/21 04:13:09;;;;;;;;;;;;;;;21.75;78.83;99077.50;3121705;28;19932;-64
2022/08/21 04:14:41;;;;;;;;;;;;;;;21.75;79.82;99074.84;3121417;28;20257;-64
2022/08/21 04:16:13;;;;;;;;;;;;;;;21.67;81.46;99074.81;3121282;28;19925;-64
2022/08/21 04:17:45;;;;;;;;;;;;;;;21.57;82.04;99074.09;3121190;28;19929;-64
2022/08/21 04:19:17;;;;;;;;;;;;;;;21.45;82.54;99078.84;3121517;28;19925;-64
2022/08/21 04:20:50;;;;;;;;;;;;;;;21.32;83.20;99071.25;3121387;28;19928;-64
2022/08/21 04:22:22;;;;;;;;;;;;;;;21.22;82.98;99067.06;3120782;28;19960;-64
2022/08/21 04:23:54;;;;;;;;;;;;;;;21.26;83.28;99079.00;3121264;28;19929;-64
2022/08/21 04:25:28;;;;;;;;;;;;;;;21.21;82.96;99078.63;3121254;28;20466;-64
2022/08/21 04:27:00;;;;;;;;;;;;;;;21.16;83.30;99079.13;3130376;28;19936;-64
2022/08/21 04:28:32;;;;;;;;;;;;;;;21.09;83.91;99086.03;3121297;28;19925;-64
2022/08/21 04:30:04;;;;;;;;;;;;;;;21.00;84.21;99079.84;3121224;28;19925;-64
2022/08/21 04:31:37;;;;;;;;;;;;;;;20.96;84.87;99080.28;3121272;28;19936;-64
2022/08/21 04:33:09;;;;;;;;;;;;;;;20.91;85.03;99075.44;3121247;28;19986;-63
2022/08/21 04:34:40;;;;;;;;;;;;;;;20.86;85.43;99069.78;3121008;28;19925;-64
2022/08/21 04:36:12;;;;;;;;;;;;;;;20.88;84.86;99071.31;3120967;28;20378;-63
2022/08/21 04:37:43;;;;;;;;;;;;;;;20.92;84.63;99058.59;3121179;28;19929;-64
2022/08/21 04:39:14;;;;;;;;;;;;;;;20.95;83.91;99062.75;3121022;28;19925;-64
2022/08/21 04:40:48;;;;;;;;;;;;;;;20.99;83.83;99064.09;3120912;28;19925;-63
2022/08/21 04:42:20;;;;;;;;;;;;;;;20.99;83.86;99067.56;3110707;28;20288;-63
2022/08/21 04:43:51;;;;;;;;;;;;;;;20.97;83.60;99072.19;3121103;28;19925;-63
2022/08/21 04:45:23;;;;;;;;;;;;;;;21.00;84.08;99066.59;3120829;28;20284;-63
2022/08/21 04:46:55;;;;;;;;;;;;;;;21.03;83.44;99057.50;3120865;28;20012;-64
2022/08/21 04:48:27;;;;;;;;;;;;;;;21.06;83.32;99052.75;3120979;28;19929;-63
2022/08/21 04:49:58;;;;;;;;;;;;;;;21.10;83.37;99054.09;3120892;28;19932;-63
2022/08/21 04:51:32;;;;;;;;;;;;;;;21.14;83.30;99055.41;3120764;28;19926;-63
2022/08/21 04:53:03;;;;;;;;;;;;;;;21.14;83.43;99051.94;3120935;28;19929;-64
2022/08/21 04:54:35;;;;;;;;;;;;;;;21.17;83.34;99049.00;3120906;28;19984;-63
2022/08/21 04:56:10;;;;;;;;;;;;;;;21.20;83.21;99053.16;3120903;28;20325;-63
2022/08/21 04:57:41;;;;;;;;;;;;;;;21.21;83.18;99042.41;3120672;28;19925;-63
2022/08/21 04:59:15;;;;;;;;;;;;;;;21.24;83.34;99035.97;3120978;28;19936;-63
2022/08/21 05:00:46;;;;;;;;;;;;;;;21.27;82.77;99040.97;3120964;28;20647;-67
2022/08/21 05:02:18;;;;;;;;;;;;;;;21.28;83.00;99043.44;3120986;28;19929;-64
2022/08/21 05:03:52;;;;;;;;;;;;;;;21.30;82.71;99051.25;3120521;28;20028;-63
2022/08/21 05:05:23;;;;;;;;;;;;;;;21.32;81.96;99046.59;3120768;28;20365;-64
2022/08/21 05:06:57;;;;;;;;;;;;;;;21.35;81.74;99054.22;3119228;28;19925;-64
2022/08/21 05:08:29;;;;;;;;;;;;;;;21.36;81.64;99050.66;3120638;28;19929;-63
2022/08/21 05:10:02;;;;;;;;;;;;;;;21.38;81.49;99046.00;3120765;28;19998;-64
2022/08/21 05:11:35;;;;;;;;;;;;;;;21.37;81.12;99044.34;3110699;28;19967;-64
2022/08/21 05:13:07;;;;;;;;;;;;;;;21.37;80.78;99040.88;3108824;28;19994;-63
2022/08/21 05:14:38;;;;;;;;;;;;;;;21.35;80.58;99035.69;3119494;28;19998;-63
2022/08/21 05:16:09;;;;;;;;;;;;;;;21.35;80.55;99036.56;3120624;28;19929;-63
2022/08/21 05:17:41;;;;;;;;;;;;;;;21.37;80.59;99038.22;3120663;28;20008;-64
2022/08/21 05:19:13;;;;;;;;;;;;;;;21.38;80.50;99032.75;3120830;28;19925;-63
2022/08/21 05:20:45;;;;;;;;;;;;;;;21.40;80.34;99028.16;3120801;28;19958;-64
2022/08/21 05:22:20;;;;;;;;;;;;;;;21.44;80.77;99026.84;3119945;28;20331;-64
2022/08/21 05:23:51;;;;;;;;;;;;;;;21.45;80.88;99023.22;3120833;28;19925;-64
2022/08/21 05:25:23;;;;;;;;;;;;;;;21.47;80.61;99025.69;3120609;28;19936;-64
2022/08/21 05:26:56;;;;;;;;;;;;;;;21.48;80.22;99028.19;3130208;28;19925;-64
2022/08/21 05:28:28;;;;;;;;;;;;;;;21.51;80.49;99024.41;3120916;28;19958;-64
2022/08/21 05:30:00;;;;;;;;;;;;;;;21.54;80.54;99026.75;3120947;28;19929;-64
2022/08/21 05:31:32;;;;;;;;;;;;;;;21.56;80.64;99022.94;3120600;28;19929;-64
2022/08/21 05:33:05;;;;;;;;;;;;;;;21.54;81.95;99030.22;3120794;28;19950;-64
2022/08/21 05:34:36;;;;;;;;;;;;;;;21.46;82.80;99032.81;3120503;28;19997;-64
2022/08/21 05:36:07;;;;;;;;;;;;;;;21.40;82.97;99028.16;3120850;28;19938;-64
2022/08/21 05:37:39;;;;;;;;;;;;;;;21.40;83.10;99029.97;3120486;28;19925;-64
2022/08/21 05:39:11;;;;;;;;;;;;;;;21.35;83.74;99041.00;3121579;28;19925;-65
2022/08/21 05:40:42;;;;;;;;;;;;;;;21.31;83.92;99042.31;3137538;27;20287;-65
2022/08/21 05:42:16;;;;;;;;;;;;;;;21.29;83.37;99038.97;3112886;28;19977;-64
2022/08/21 05:43:47;;;;;;;;;;;;;;;21.29;83.59;99039.78;3122799;28;20024;-65
2022/08/21 05:45:19;;;;;;;;;;;;;;;21.22;83.89;99038.78;3122751;28;19936;-65
2022/08/21 05:46:51;;;;;;;;;;;;;;;21.20;84.40;99038.09;3122972;28;19925;-65
2022/08/21 05:48:23;;;;;;;;;;;;;;;21.17;84.37;99041.03;3122726;28;19940;-65
2022/08/21 05:49:55;;;;;;;;;;;;;;;21.14;84.72;99047.47;3122641;28;20292;-66
2022/08/21 05:51:27;;;;;;;;;;;;;;;21.09;85.26;99039.19;3122626;28;19935;-65
2022/08/21 05:52:59;;;;;;;;;;;;;;;21.06;85.11;99044.81;3123059;28;19933;-64
2022/08/21 05:54:31;;;;;;;;;;;;;;;21.02;85.45;99039.94;3122591;28;19929;-63
2022/08/21 05:56:03;;;;;;;;;;;;;;;21.00;85.55;99048.06;3122820;28;19994;-64
2022/08/21 05:57:36;;;;;;;;;;;;;;;20.98;85.74;99050.03;3122558;28;19940;-64
2022/08/21 05:59:08;;;;;;;;;;;;;;;20.98;85.94;99049.19;3122034;28;20288;-64
2022/08/21 06:00:39;;;;;;;;;;;;;;;20.99;85.85;99051.69;3118792;28;19941;-64
2022/08/21 06:02:11;;;;;;;;;;;;;;;21.00;86.07;99047.22;3122593;28;19933;-64
2022/08/21 06:03:43;;;;;;;;;;;;;;;20.94;86.29;99053.97;3122612;28;19925;-64
2022/08/21 06:05:15;;;;;;;;;;;;;;;20.92;86.18;99055.13;3122689;28;19925;-65
2022/08/21 06:06:47;;;;;;;;;;;;;;;20.87;86.40;99058.19;3120965;28;19929;-65
2022/08/21 06:08:19;;;;;;;;;;;;;;;20.85;86.61;99055.72;3122638;28;19975;-65
2022/08/21 06:09:51;;;;;;;;;;;;;;;20.83;86.79;99062.16;3122693;28;20016;-64
2022/08/21 06:11:22;;;;;;;;;;;;;;;20.83;86.79;99062.16;3114020;28;19925;-65
2022/08/21 06:12:55;;;;;;;;;;;;;;;20.82;86.94;99063.97;3121021;28;19937;-65
2022/08/21 06:14:27;;;;;;;;;;;;;;;20.79;86.60;99064.25;3122296;28;20295;-65
2022/08/21 06:16:02;;;;;;;;;;;;;;;20.78;86.24;99067.06;3122799;28;19985;-65
2022/08/21 06:17:34;;;;;;;;;;;;;;;20.75;86.15;99057.63;3122610;28;19925;-65
2022/08/21 06:19:06;;;;;;;;;;;;;;;20.76;85.85;99058.44;3122537;28;19997;-65
2022/08/21 06:20:38;;;;;;;;;;;;;;;20.75;86.59;99062.91;3122290;28;19949;-65
2022/08/21 06:22:10;;;;;;;;;;;;;;;20.74;86.74;99063.91;3122500;28;19925;-64
2022/08/21 06:23:41;;;;;;;;;;;;;;;20.73;86.75;99064.03;3122380;28;19986;-65
2022/08/21 06:25:13;;;;;;;;;;;;;;;20.70;86.73;99065.16;3122206;28;19997;-64
2022/08/21 06:26:46;;;;;;;;;;;;;;;20.75;86.54;99062.06;3130982;28;19965;-65
2022/08/21 06:28:18;;;;;;;;;;;;;;;20.78;86.54;99061.78;3123273;28;19940;-65
2022/08/21 06:29:49;;;;;;;;;;;;;;;20.82;85.86;99057.81;3122241;28;20012;-64
2022/08/21 06:31:22;;;;;;;;;;;;;;;20.86;85.96;99056.56;3122320;28;19925;-65
2022/08/21 06:32:54;;;;;;;;;;;;;;;20.89;85.56;99053.59;3122429;28;19936;-64
2022/08/21 06:34:26;;;;;;;;;;;;;;;20.90;85.61;99058.72;3122441;28;19950;-65
2022/08/21 06:35:57;;;;;;;;;;;;;;;20.91;85.60;99056.91;3122121;28;20009;-65
2022/08/21 06:37:29;;;;;;;;;;;;;;;20.93;85.55;99057.59;3122319;28;19925;-64
2022/08/21 06:39:01;;;;;;;;;;;;;;;20.99;85.15;99054.31;3122346;28;19954;-64
2022/08/21 06:40:32;;;;;;;;;;;;;;;21.06;85.02;99055.38;3122355;28;20008;-64
2022/08/21 06:42:04;;;;;;;;;;;;;;;21.09;84.96;99057.72;3113166;28;19925;-65
2022/08/21 06:43:38;;;;;;;;;;;;;;;21.07;84.78;99056.22;3121587;28;19979;-65
2022/08/21 06:45:09;;;;;;;;;;;;;;;21.06;84.59;99055.38;3122290;28;19925;-65
2022/08/21 06:46:40;;;;;;;;;;;;;;;21.06;84.56;99050.09;3122194;28;19929;-64
2022/08/21 06:48:12;;;;;;;;;;;;;;;21.10;84.43;99050.59;3122118;28;19939;-65
2022/08/21 06:49:43;;;;;;;;;;;;;;;21.16;83.99;99052.63;3121882;28;20391;-65
2022/08/21 06:51:15;;;;;;;;;;;;;;;21.24;84.09;99042.09;3122164;28;19926;-65
2022/08/21 06:52:46;;;;;;;;;;;;;;;21.30;85.51;99035.34;3122043;28;19925;-65
2022/08/21 06:54:17;;;;;;;;;;;;;;;21.33;85.02;99027.09;3121838;28;20074;-65
2022/08/21 06:55:49;;;;;;;;;;;;;;;21.37;84.85;99022.34;3121399;28;19925;-64
2022/08/21 06:57:21;;;;;;;;;;;;;;;21.43;83.99;99030.47;3122266;28;19929;-65
2022/08/21 06:58:54;;;;;;;;;;;;;;;21.51;83.99;99033.19;3122030;28;19925;-65
2022/08/21 07:00:25;;;;;;;;;;;;;;;21.55;83.54;99028.38;3121838;28;19937;-65
2022/08/21 07:01:57;;;;;;;;;;;;;;;21.63;82.73;99032.91;3121830;28;19929;-65
2022/08/21 07:03:29;;;;;;;;;;;;;;;21.68;82.32;99027.94;3122034;28;19925;-65
2022/08/21 07:05:01;;;;;;;;;;;;;;;21.71;82.18;99027.63;3122051;28;20012;-65
2022/08/21 07:06:33;;;;;;;;;;;;;;;21.82;81.93;99032.63;3120106;28;19940;-65
2022/08/21 07:08:04;;;;;;;;;;;;;;;21.89;81.77;99027.53;3122206;28;19925;-65
2022/08/21 07:09:36;;;;;;;;;;;;;;;21.94;82.41;99019.94;3121774;28;19936;-65
2022/08/21 07:11:10;;;;;;;;;;;;;;;21.93;81.71;99026.22;3115500;28;19979;-65
2022/08/21 07:12:42;;;;;;;;;;;;;;;21.95;81.26;99030.38;3118498;28;19937;-65
2022/08/21 07:14:15;;;;;;;;;;;;;;;21.95;81.00;99018.97;3122170;28;19933;-65
2022/08/21 07:15:47;;;;;;;;;;;;;;;21.97;80.68;99020.44;3121678;28;19929;-65
2022/08/21 07:17:19;;;;;;;;;;;;;;;22.04;80.56;99026.75;3121733;28;19931;-65
2022/08/21 07:18:50;;;;;;;;;;;;;;;22.11;80.10;99024.28;3121746;28;19940;-65
2022/08/21 07:20:22;;;;;;;;;;;;;;;22.17;80.20;99025.50;3121956;28;20210;-65
2022/08/21 07:21:56;;;;;;;;;;;;;;;22.18;80.21;99033.31;3121341;28;19925;-65
2022/08/21 07:23:29;;;;;;;;;;;;;;;22.24;80.13;99026.50;3121577;28;19990;-65
2022/08/21 07:25:00;;;;;;;;;;;;;;;22.29;79.90;99026.84;3121599;28;20285;-65
2022/08/21 07:26:32;;;;;;;;;;;;;;;22.37;79.88;99023.38;3128670;28;19933;-65
2022/08/21 07:28:04;;;;;;;;;;;;;;;22.43;79.95;99022.72;3124496;28;19936;-65
2022/08/21 07:29:37;;;;;;;;;;;;;;;22.51;79.87;99024.53;3121648;28;19925;-65
2022/08/21 07:31:10;;;;;;;;;;;;;;;22.53;79.38;99025.22;3121423;28;19932;-65
2022/08/21 07:32:41;;;;;;;;;;;;;;;22.53;78.63;99025.22;3136631;27;19929;-65
2022/08/21 07:34:13;;;;;;;;;;;;;;;22.53;78.37;99023.38;3121724;28;19929;-65
2022/08/21 07:35:45;;;;;;;;;;;;;;;22.56;78.04;99024.88;3121627;28;19986;-65
2022/08/21 07:37:17;;;;;;;;;;;;;;;22.58;77.85;99021.06;3121729;28;19933;-65
2022/08/21 07:38:49;;;;;;;;;;;;;;;22.61;77.96;99019.91;3121497;28;19937;-65
2022/08/21 07:40:20;;;;;;;;;;;;;;;22.63;77.96;99016.09;3121664;28;20023;-65
2022/08/21 07:41:52;;;;;;;;;;;;;;;22.66;77.75;99014.94;3114024;28;19934;-65
2022/08/21 07:43:23;;;;;;;;;;;;;;;22.67;77.75;99014.78;3119225;28;19925;-65
2022/08/21 07:44:58;;;;;;;;;;;;;;;22.71;77.27;99007.28;3120767;28;21539;-65
2022/08/21 07:46:30;;;;;;;;;;;;;;;22.75;77.10;99006.00;3121430;28;19925;-65
2022/08/21 07:48:02;;;;;;;;;;;;;;;22.80;77.41;99013.44;3121455;28;19929;-65
2022/08/21 07:49:33;;;;;;;;;;;;;;;22.82;77.00;99006.97;3121723;28;19925;-64
2022/08/21 07:51:07;;;;;;;;;;;;;;;22.86;76.87;99015.41;3121300;28;19925;-65
2022/08/21 07:52:39;;;;;;;;;;;;;;;22.90;76.69;99019.41;3120884;28;19928;-65
2022/08/21 07:54:11;;;;;;;;;;;;;;;22.94;76.61;99016.28;3121229;28;19937;-65
2022/08/21 07:55:42;;;;;;;;;;;;;;;23.00;76.41;99017.44;3121599;28;19940;-64
2022/08/21 07:57:14;;;;;;;;;;;;;;;22.99;76.30;99015.78;3121483;28;19929;-64
2022/08/21 07:58:46;;;;;;;;;;;;;;;22.95;76.01;99019.75;3121397;28;19947;-63
2022/08/21 08:00:21;;;;;;;;;;;;;;;22.94;76.15;99018.06;3119715;28;19995;-64